Adelma Beach, Washington
Current Conditions -  °F | °C
As of 4:56 PM on Sunday 21 Dec 2014 (Local Time) from KNUW Reporting Station
Overcast Overcast  
Wind Chill: 53°   Ceiling: 16000
Heat Index: 53°   Visibility: 10mi
Dew Point: 44°   Wind: 6mph
Humidity: 71%   Direction: 210°SSW
Pressure: 30.02"   Gusts: NA
Location:  48.026°N, 122.859°W
Report Text: KNUW 220056Z 21005KT 10SM FEW030 OVC160 12/07 A3002 RMK AO2 SLP168 T01170067 VISNO E $
Loading
Personal Weather Stations






























Interactive Weather Map New forecast layout! Learn more

10-Day Weather Forecast

Advertisements
Track Severe Weather on mobile